Time;durP1;ratioP1;P1;durP2;ratioP2;P2;SDS_P1;SDS_P2;PMS_P1;PMS_P2;Temp;Humidity;BMP_temperature;BMP_pressure;BME280_temperature;BME280_humidity;BME280_pressure;Samples;Min_cycle;Max_cycle;Signal;HPM_P1;HPM_P2
2022/06/04 00:03:09;;;;;;;3.03;2.73;;;22.70;42.30;;;;;;8298933;28;20487;-41
2022/06/04 00:07:09;;;;;;;3.03;2.40;;;22.70;42.30;;;;;;8299584;28;20130;-41
2022/06/04 00:15:29;;;;;;;3.03;2.70;;;22.70;42.30;;;;;;8298784;28;20622;-41
2022/06/04 00:19:30;;;;;;;2.90;2.40;;;22.70;42.30;;;;;;8298803;28;20030;-41
2022/06/04 00:23:31;;;;;;;3.15;2.38;;;22.70;42.30;;;;;;8298671;28;20534;-41
2022/06/04 00:27:31;;;;;;;5.17;3.20;;;22.70;42.30;;;;;;8298180;28;20399;-41
2022/06/04 00:31:32;;;;;;;3.87;2.83;;;22.60;42.30;;;;;;8298772;28;20276;-41
2022/06/04 00:35:34;;;;;;;3.97;3.47;;;22.60;42.30;;;;;;8298609;28;20174;-41
2022/06/04 00:39:35;;;;;;;4.40;2.60;;;22.60;42.30;;;;;;8298135;28;20048;-41
2022/06/04 00:43:57;;;;;;;3.80;2.57;;;22.70;42.30;;;;;;8297341;28;20518;-41
2022/06/04 00:48:00;;;;;;;3.33;2.78;;;22.60;42.30;;;;;;8298084;28;20045;-41
2022/06/04 00:52:02;;;;;;;2.97;2.58;;;22.60;42.30;;;;;;8297402;28;20033;-41
2022/06/04 00:56:22;;;;;;;3.35;2.33;;;22.60;42.30;;;;;;8297846;28;20123;-41
2022/06/04 01:00:33;;;;;;;4.07;2.60;;;22.60;42.30;;;;;;8297472;28;20041;-41
2022/06/04 01:04:56;;;;;;;3.25;2.15;;;22.60;42.30;;;;;;8297212;28;20042;-41
2022/06/04 01:09:34;;;;;;;4.47;2.60;;;22.60;42.30;;;;;;8297314;28;20054;-41
2022/06/04 01:13:51;;;;;;;2.78;2.47;;;22.60;42.30;;;;;;8278883;28;20041;-41
2022/06/04 01:17:54;;;;;;;2.92;2.40;;;22.60;42.30;;;;;;8297370;28;20151;-41
2022/06/04 01:22:15;;;;;;;3.33;2.70;;;22.60;42.40;;;;;;8296751;28;20041;-41
2022/06/04 01:26:48;;;;;;;2.47;2.28;;;22.60;42.40;;;;;;8297343;28;20418;-41
2022/06/04 01:30:52;;;;;;;3.50;2.30;;;22.60;42.40;;;;;;8297364;28;20065;-42
2022/06/04 01:35:31;;;;;;;3.30;2.25;;;22.60;42.40;;;;;;8322989;28;20060;-41
2022/06/04 01:44:09;;;;;;;2.92;2.13;;;22.50;42.30;;;;;;8310935;28;20083;-41
2022/06/04 01:48:11;;;;;;;2.25;2.05;;;22.50;42.30;;;;;;8296377;28;20462;-41
2022/06/04 01:52:22;;;;;;;5.50;2.30;;;22.50;42.40;;;;;;8296688;28;20129;-41
2022/06/04 01:56:34;;;;;;;2.30;2.10;;;22.60;42.40;;;;;;8300486;28;20068;-41
2022/06/04 02:00:40;;;;;;;3.38;2.20;;;22.50;42.30;;;;;;8302753;28;20068;-41
2022/06/04 02:04:44;;;;;;;3.08;2.67;;;22.50;42.40;;;;;;8303358;28;20474;-41
2022/06/04 02:08:52;;;;;;;3.58;2.70;;;22.50;42.30;;;;;;8302783;28;20058;-41
2022/06/04 02:12:57;;;;;;;3.08;2.78;;;22.50;42.40;;;;;;8302367;28;20060;-41
2022/06/04 02:17:06;;;;;;;3.20;2.72;;;22.50;42.50;;;;;;8302892;28;20034;-41
2022/06/04 02:21:07;;;;;;;2.92;2.63;;;22.50;42.50;;;;;;8302924;28;20409;-41
2022/06/04 02:25:10;;;;;;;4.30;2.47;;;22.50;42.50;;;;;;8327213;28;20052;-42
2022/06/04 02:29:11;;;;;;;3.35;2.40;;;22.50;42.50;;;;;;8334958;28;20319;-42
2022/06/04 02:33:33;;;;;;;2.67;2.30;;;22.40;42.70;;;;;;8334372;28;20068;-42
2022/06/04 02:38:04;;;;;;;3.25;2.50;;;22.50;42.70;;;;;;8334861;28;20038;-42
2022/06/04 02:42:24;;;;;;;2.80;2.42;;;22.40;42.50;;;;;;8325943;28;20033;-42
2022/06/04 02:46:41;;;;;;;3.50;2.50;;;22.40;42.50;;;;;;8334464;28;20042;-42
2022/06/04 02:50:54;;;;;;;2.85;2.20;;;22.50;42.70;;;;;;8334364;28;20136;-42
2022/06/04 02:54:57;;;;;;;3.20;2.45;;;22.40;42.50;;;;;;8333812;28;20398;-42
2022/06/04 02:59:03;;;;;;;3.05;2.38;;;22.40;42.50;;;;;;8333937;28;20099;-42
2022/06/04 03:03:03;;;;;;;3.42;2.40;;;22.40;42.60;;;;;;8334012;28;20486;-42
2022/06/04 03:07:06;;;;;;;3.38;2.60;;;22.50;42.70;;;;;;8333139;28;20184;-42
2022/06/04 03:11:06;;;;;;;3.58;2.25;;;22.40;42.50;;;;;;8333698;28;20114;-42
2022/06/04 03:15:09;;;;;;;2.53;2.33;;;22.40;42.60;;;;;;8333593;28;20037;-42
2022/06/04 03:19:10;;;;;;;2.75;2.03;;;22.40;42.60;;;;;;8333373;28;20037;-42
2022/06/04 03:23:11;;;;;;;2.72;2.30;;;22.40;42.60;;;;;;8333322;28;20108;-42
2022/06/04 03:27:12;;;;;;;2.80;2.38;;;22.40;42.70;;;;;;8332860;28;20060;-41
2022/06/04 03:31:12;;;;;;;4.43;2.23;;;22.40;42.70;;;;;;8333001;28;20037;-42
2022/06/04 03:35:14;;;;;;;2.40;2.20;;;22.40;42.70;;;;;;8333157;28;20053;-42
2022/06/04 03:39:14;;;;;;;4.22;2.53;;;22.40;42.70;;;;;;8332611;28;20060;-42
2022/06/04 03:43:15;;;;;;;3.17;2.60;;;22.40;42.80;;;;;;8332981;28;20032;-42
2022/06/04 03:47:17;;;;;;;2.90;2.07;;;22.40;42.70;;;;;;8332588;28;20042;-42
2022/06/04 03:51:17;;;;;;;3.35;2.33;;;22.40;42.80;;;;;;8331991;28;20041;-42
2022/06/04 03:55:19;;;;;;;4.57;3.07;;;22.40;42.80;;;;;;8332378;28;20486;-43
2022/06/04 03:59:19;;;;;;;3.80;2.33;;;22.40;42.90;;;;;;8332162;28;20040;-40
2022/06/04 04:03:20;;;;;;;2.53;2.13;;;22.40;42.80;;;;;;8331493;28;20033;-42
2022/06/04 04:07:21;;;;;;;2.22;2.03;;;22.40;42.90;;;;;;8331191;28;20137;-40
2022/06/04 04:11:25;;;;;;;2.60;2.40;;;22.40;42.90;;;;;;8331727;28;20041;-41
2022/06/04 04:15:26;;;;;;;2.33;2.05;;;22.40;43.00;;;;;;8331182;28;20099;-41
2022/06/04 04:19:30;;;;;;;2.22;2.03;;;22.40;42.90;;;;;;8331349;28;20479;-41
2022/06/04 04:23:30;;;;;;;2.38;2.17;;;22.40;43.00;;;;;;8331357;28;20112;-41
2022/06/04 04:27:31;;;;;;;3.63;2.27;;;22.40;43.00;;;;;;8331023;28;20033;-41
2022/06/04 04:31:35;;;;;;;2.47;2.00;;;22.40;43.00;;;;;;8331147;28;20038;-41
2022/06/04 04:35:36;;;;;;;3.13;2.00;;;22.40;42.90;;;;;;8331084;28;20068;-41
2022/06/04 04:39:37;;;;;;;2.95;2.00;;;22.40;43.00;;;;;;8330597;28;20045;-41
2022/06/04 04:43:39;;;;;;;2.85;2.33;;;22.40;43.00;;;;;;8330790;28;20120;-42
2022/06/04 04:47:41;;;;;;;2.85;2.15;;;22.50;43.00;;;;;;8331003;28;20095;-41
2022/06/04 04:51:42;;;;;;;3.05;1.90;;;22.50;43.00;;;;;;8330089;28;20068;-41
2022/06/04 04:55:46;;;;;;;3.00;2.30;;;22.50;43.00;;;;;;8330846;28;20045;-41
2022/06/04 04:59:47;;;;;;;3.30;2.15;;;22.50;43.00;;;;;;8330473;28;20049;-41
2022/06/04 05:03:47;;;;;;;2.40;2.20;;;22.50;43.00;;;;;;8329733;28;20038;-41
2022/06/04 05:07:48;;;;;;;2.20;2.00;;;22.50;43.00;;;;;;8330387;28;20487;-41
2022/06/04 05:11:49;;;;;;;2.58;2.22;;;22.50;43.00;;;;;;8330051;28;20041;-41
2022/06/04 05:15:49;;;;;;;3.70;2.00;;;22.50;42.90;;;;;;8329522;28;20036;-41
2022/06/04 05:19:50;;;;;;;2.30;2.10;;;22.60;42.90;;;;;;8329856;28;20049;-41
2022/06/04 05:23:53;;;;;;;2.07;1.73;;;22.60;43.00;;;;;;8329661;28;20030;-42
2022/06/04 05:27:54;;;;;;;2.63;2.20;;;22.60;43.00;;;;;;8329402;28;20041;-42
2022/06/04 05:31:56;;;;;;;2.43;2.13;;;22.50;42.90;;;;;;8329041;28;20041;-41
2022/06/04 05:35:56;;;;;;;1.88;1.77;;;22.60;42.90;;;;;;8329470;28;20040;-41
2022/06/04 05:39:57;;;;;;;2.10;1.90;;;22.60;42.80;;;;;;8329058;28;20038;-41
2022/06/04 05:43:57;;;;;;;2.80;1.90;;;22.60;42.90;;;;;;8329318;28;20036;-42
2022/06/04 05:47:58;;;;;;;2.40;1.83;;;22.50;42.80;;;;;;8329467;28;20077;-42
2022/06/04 05:51:58;;;;;;;2.43;1.73;;;22.60;42.90;;;;;;8328761;28;20106;-42
2022/06/04 05:55:59;;;;;;;2.13;1.83;;;22.60;42.80;;;;;;8329380;28;20068;-40
2022/06/04 05:59:59;;;;;;;2.30;2.00;;;22.60;42.80;;;;;;8329241;28;20083;-41
2022/06/04 06:04:00;;;;;;;2.90;2.03;;;22.60;42.80;;;;;;8328713;28;20057;-42
2022/06/04 06:08:01;;;;;;;2.63;1.92;;;22.50;42.70;;;;;;8329400;28;20498;-42
2022/06/04 06:12:02;;;;;;;3.10;1.73;;;22.60;42.80;;;;;;8328825;28;20041;-42
2022/06/04 06:16:08;;;;;;;2.05;1.85;;;22.50;42.80;;;;;;8328408;28;20491;-41
2022/06/04 06:20:09;;;;;;;2.80;2.08;;;22.50;42.80;;;;;;8329036;28;20524;-41
2022/06/04 06:24:12;;;;;;;1.80;1.58;;;22.50;42.80;;;;;;8328467;28;20493;-41
2022/06/04 06:28:14;;;;;;;2.03;1.80;;;22.50;42.80;;;;;;8329198;28;20128;-42
2022/06/04 06:32:14;;;;;;;2.22;1.67;;;22.50;42.80;;;;;;8328738;28;20068;-42
2022/06/04 06:36:17;;;;;;;3.93;1.90;;;22.50;42.70;;;;;;8328189;28;20042;-42
2022/06/04 06:40:17;;;;;;;2.50;1.70;;;22.50;42.80;;;;;;8328525;28;20059;-41
2022/06/04 06:44:18;;;;;;;2.53;1.77;;;22.60;42.80;;;;;;8328878;28;20030;-41
2022/06/04 06:48:18;;;;;;;1.60;1.47;;;22.50;42.80;;;;;;8301367;28;20038;-42
2022/06/04 06:52:20;;;;;;;3.70;1.67;;;22.50;42.90;;;;;;8301467;28;20568;-41
2022/06/04 06:56:30;;;;;;;2.83;2.00;;;22.50;42.90;;;;;;8301229;28;20029;-41
2022/06/04 07:00:30;;;;;;;1.70;1.60;;;22.50;42.90;;;;;;8300713;28;20156;-41
2022/06/04 07:04:31;;;;;;;2.17;1.77;;;22.50;42.80;;;;;;8304355;28;20041;-42
2022/06/04 07:08:31;;;;;;;2.10;1.80;;;22.60;42.80;;;;;;8333934;28;20046;-41
2022/06/04 07:12:32;;;;;;;2.43;1.73;;;22.50;42.80;;;;;;8333116;28;20071;-42
2022/06/04 07:16:33;;;;;;;1.60;1.50;;;22.50;42.90;;;;;;8333655;28;20036;-42
2022/06/04 07:20:34;;;;;;;1.88;1.60;;;22.60;42.80;;;;;;8333281;28;20045;-41
2022/06/04 07:24:35;;;;;;;1.90;1.60;;;22.60;42.80;;;;;;8332739;28;20076;-41
2022/06/04 07:28:39;;;;;;;2.33;1.60;;;22.60;42.90;;;;;;8333171;28;20056;-42
2022/06/04 07:32:41;;;;;;;1.98;1.60;;;22.60;42.90;;;;;;8332787;28;20037;-41
2022/06/04 07:36:43;;;;;;;3.08;1.85;;;22.60;42.90;;;;;;8332251;28;20040;-41
2022/06/04 07:40:45;;;;;;;1.55;1.45;;;22.60;42.80;;;;;;8332630;28;20393;-41
2022/06/04 07:44:45;;;;;;;3.05;1.60;;;22.60;42.80;;;;;;8332405;28;20041;-41
2022/06/04 07:48:46;;;;;;;1.80;1.70;;;22.60;42.80;;;;;;8332210;28;20406;-42
2022/06/04 07:52:47;;;;;;;1.83;1.58;;;22.70;42.80;;;;;;8332035;28;20061;-41
2022/06/04 07:56:48;;;;;;;1.83;1.70;;;22.70;42.80;;;;;;8332196;28;20053;-42
2022/06/04 08:00:55;;;;;;;2.15;1.70;;;22.70;42.80;;;;;;8331572;28;20029;-42
2022/06/04 08:04:56;;;;;;;1.63;1.52;;;22.70;42.70;;;;;;8332547;28;20355;-42
2022/06/04 08:08:58;;;;;;;3.70;2.00;;;22.70;42.60;;;;;;8332040;28;20049;-42
2022/06/04 08:13:01;;;;;;;2.15;1.55;;;22.80;42.60;;;;;;8331403;28;20045;-42
2022/06/04 08:17:02;;;;;;;2.28;1.58;;;22.80;42.60;;;;;;8331580;28;20044;-41
2022/06/04 08:21:05;;;;;;;1.90;1.60;;;22.80;42.60;;;;;;8331365;28;20490;-42
2022/06/04 08:25:06;;;;;;;2.53;1.50;;;22.80;42.60;;;;;;8331081;28;20052;-41
2022/06/04 08:29:07;;;;;;;2.60;1.70;;;22.80;42.50;;;;;;8331786;28;20041;-42
2022/06/04 08:33:09;;;;;;;2.10;1.73;;;22.80;42.60;;;;;;8330639;28;20029;-41
2022/06/04 08:37:09;;;;;;;;;;;22.80;42.60;;;;;;8331534;28;20571;-42
2022/06/04 08:41:35;;;;;;;1.47;1.37;;;22.80;42.50;;;;;;8331144;28;19966;-41
2022/06/04 08:45:38;;;;;;;1.60;1.40;;;22.90;42.60;;;;;;8330369;28;20042;-41
2022/06/04 08:49:44;;;;;;;2.65;1.70;;;22.90;42.60;;;;;;8330560;28;20497;-41
2022/06/04 08:53:49;;;;;;;2.03;1.75;;;22.90;42.60;;;;;;8330613;28;20029;-41
2022/06/04 08:58:17;;;;;;;1.75;1.30;;;22.90;42.60;;;;;;8330059;28;20065;-41
2022/06/04 09:02:22;;;;;;;1.65;1.40;;;22.90;42.70;;;;;;8330585;28;20033;-41
2022/06/04 09:06:57;;;;;;;1.80;1.70;;;22.90;42.60;;;;;;8329550;28;20107;-41
2022/06/04 09:11:03;;;;;;;1.52;1.42;;;23.00;42.60;;;;;;8330131;28;20556;-41
2022/06/04 09:15:15;;;;;;;1.48;1.38;;;23.00;42.60;;;;;;8330178;28;20057;-41
2022/06/04 09:19:25;;;;;;;1.92;1.40;;;23.00;42.60;;;;;;8329905;28;20030;-41
2022/06/04 09:23:34;;;;;;;2.10;1.67;;;23.00;42.50;;;;;;8330080;28;20057;-41
2022/06/04 09:27:50;;;;;;;2.10;1.63;;;23.00;42.60;;;;;;8329231;28;20457;-41
2022/06/04 09:32:09;;;;;;;1.88;1.35;;;23.00;42.50;;;;;;8329767;28;20037;-41
2022/06/04 09:36:12;;;;;;;1.80;1.50;;;23.10;42.60;;;;;;8329278;28;20049;-41
2022/06/04 09:40:19;;;;;;;1.50;1.40;;;23.10;42.60;;;;;;8329944;28;20042;-41
2022/06/04 09:44:21;;;;;;;1.75;1.40;;;23.10;42.50;;;;;;8329912;28;20064;-41
2022/06/04 09:48:34;;;;;;;2.53;1.67;;;23.10;42.50;;;;;;8328929;28;20490;-41
2022/06/04 09:52:43;;;;;;;1.77;1.50;;;23.10;42.40;;;;;;8329766;28;20064;-41
2022/06/04 09:56:52;;;;;;;2.45;1.65;;;23.20;42.40;;;;;;8329284;28;20026;-41
2022/06/04 10:01:07;;;;;;;1.50;1.40;;;23.20;42.40;;;;;;8328832;28;20119;-41
2022/06/04 10:05:19;;;;;;;2.83;1.50;;;23.20;42.40;;;;;;8329836;28;20380;-41
2022/06/04 10:13:43;;;;;;;1.92;1.40;;;23.20;42.30;;;;;;8309561;28;20111;-41
2022/06/04 10:17:43;;;;;;;1.50;1.40;;;23.30;42.30;;;;;;8330479;28;20025;-41
2022/06/04 10:21:47;;;;;;;1.73;1.63;;;23.30;42.20;;;;;;8334697;28;20042;-41
2022/06/04 10:26:04;;;;;;;1.60;1.40;;;23.30;42.20;;;;;;8335122;28;20486;-41
2022/06/04 10:30:20;;;;;;;1.52;1.40;;;23.30;42.10;;;;;;8335023;28;20042;-41
2022/06/04 10:34:37;;;;;;;2.13;1.58;;;23.40;42.20;;;;;;8334343;28;20129;-41
2022/06/04 10:38:53;;;;;;;1.67;1.40;;;23.40;42.10;;;;;;8334399;28;20033;-41
2022/06/04 10:43:03;;;;;;;1.73;1.63;;;23.40;42.10;;;;;;8332739;28;20112;-41
2022/06/04 10:47:34;;;;;;;1.60;1.50;;;23.40;42.00;;;;;;8334237;28;20128;-41
2022/06/04 10:51:56;;;;;;;1.83;1.50;;;23.40;42.00;;;;;;8330215;28;20037;-41
2022/06/04 10:56:05;;;;;;;1.90;1.40;;;23.50;42.00;;;;;;8333944;28;20080;-42
2022/06/04 11:00:14;;;;;;;1.30;1.20;;;23.50;42.00;;;;;;8334237;28;20120;-41
2022/06/04 11:04:23;;;;;;;1.90;1.73;;;23.50;41.90;;;;;;8333465;28;20042;-41
2022/06/04 11:08:26;;;;;;;1.48;1.20;;;23.60;42.00;;;;;;8333791;28;20045;-42
2022/06/04 11:12:55;;;;;;;2.08;1.73;;;23.60;42.00;;;;;;8333069;28;20502;-40
2022/06/04 11:17:17;;;;;;;1.20;1.10;;;23.60;41.90;;;;;;8333120;28;20077;-41
2022/06/04 11:21:40;;;;;;;1.77;1.67;;;23.60;42.40;;;;;;8332676;28;20029;-42
2022/06/04 11:25:43;;;;;;;1.70;1.60;;;23.60;41.80;;;;;;8333524;28;20032;-42
2022/06/04 11:29:44;;;;;;;1.48;1.38;;;23.70;41.80;;;;;;8332422;28;20037;-40
2022/06/04 11:34:14;;;;;;;1.23;1.13;;;23.70;41.80;;;;;;8330894;28;20034;-40
2022/06/04 11:38:29;;;;;;;1.52;1.42;;;23.70;41.70;;;;;;8323423;28;20084;-42
2022/06/04 11:43:03;;;;;;;1.98;1.63;;;23.80;41.70;;;;;;8319802;28;20105;-42
2022/06/04 11:47:29;;;;;;;2.92;1.70;;;23.80;41.70;;;;;;8310051;28;20056;-41
2022/06/04 11:52:22;;;;;;;1.65;1.55;;;23.80;41.60;;;;;;8318936;28;20153;-41
2022/06/04 11:56:42;;;;;;;2.72;2.03;;;23.80;41.50;;;;;;8301891;28;20486;-41
2022/06/04 12:00:45;;;;;;;4.20;2.58;;;23.90;41.50;;;;;;8314329;28;20041;-42
2022/06/04 12:05:19;;;;;;;2.67;2.15;;;23.90;41.50;;;;;;8327033;28;20508;-42
2022/06/04 12:09:47;;;;;;;2.88;2.22;;;23.90;41.50;;;;;;8313528;28;20053;-40
2022/06/04 12:14:06;;;;;;;2.58;2.38;;;23.90;41.50;;;;;;8313669;28;20107;-39
2022/06/04 12:18:27;;;;;;;2.92;2.47;;;23.90;41.40;;;;;;8316378;28;20132;-42
2022/06/04 12:27:07;;;;;;;4.05;2.90;;;24.00;41.40;;;;;;8322725;28;20083;-41
2022/06/04 12:31:08;;;;;;;3.60;2.85;;;24.10;41.90;;;;;;8316018;28;20074;-40
2022/06/04 12:35:09;;;;;;;5.15;3.22;;;24.10;41.40;;;;;;8311209;28;20532;-40
2022/06/04 12:39:29;;;;;;;3.85;3.45;;;24.10;41.30;;;;;;8304445;28;20041;-40
2022/06/04 12:43:36;;;;;;;4.03;2.88;;;24.10;41.40;;;;;;8320066;28;20368;-40
2022/06/04 12:47:38;;;;;;;4.55;3.47;;;24.10;41.30;;;;;;8309869;28;20045;-41
2022/06/04 12:51:56;;;;;;;4.43;3.40;;;24.10;41.30;;;;;;8317340;28;20063;-40
2022/06/04 12:56:06;;;;;;;4.63;3.42;;;24.20;41.40;;;;;;8305153;28;20045;-40
2022/06/04 13:00:18;;;;;;;3.70;3.20;;;24.10;41.30;;;;;;8307614;28;20387;-40
2022/06/04 13:04:21;;;;;;;4.85;3.42;;;24.20;41.30;;;;;;8312655;28;20045;-40
2022/06/04 13:08:34;;;;;;;6.38;4.10;;;24.20;41.30;;;;;;8301677;28;20050;-40
2022/06/04 13:12:59;;;;;;;4.38;3.42;;;24.20;41.30;;;;;;8315047;28;20077;-41
2022/06/04 13:17:30;;;;;;;5.68;3.45;;;24.20;41.30;;;;;;8311866;28;20029;-39
2022/06/04 13:21:33;;;;;;;5.35;3.80;;;24.30;41.30;;;;;;8326018;28;20421;-40
2022/06/04 13:25:41;;;;;;;5.13;3.88;;;24.30;41.30;;;;;;8306712;28;20494;-40
2022/06/04 13:29:41;;;;;;;6.50;4.38;;;24.30;41.30;;;;;;8317923;28;20075;-40
2022/06/04 13:33:42;;;;;;;6.63;4.32;;;24.30;41.30;;;;;;8325802;28;20037;-40
2022/06/04 13:37:43;;;;;;;6.43;4.57;;;24.30;41.20;;;;;;8317133;28;20048;-40
2022/06/04 13:42:02;;;;;;;6.10;4.45;;;24.40;41.30;;;;;;8313146;28;20030;-40
2022/06/04 13:46:14;;;;;;;5.72;4.43;;;24.40;41.30;;;;;;8315052;28;20065;-40
2022/06/04 13:50:19;;;;;;;6.47;4.32;;;24.40;41.30;;;;;;8321854;28;20501;-41
2022/06/04 13:54:25;;;;;;;5.85;4.43;;;24.40;41.30;;;;;;8310952;28;20045;-41
2022/06/04 13:58:33;;;;;;;6.15;4.53;;;24.40;41.30;;;;;;8319931;28;20038;-40
2022/06/04 14:02:38;;;;;;;5.32;4.50;;;24.50;41.30;;;;;;8320460;28;20030;-41
2022/06/04 14:06:39;;;;;;;7.28;4.70;;;24.50;41.80;;;;;;8327582;28;20094;-41
2022/06/04 14:10:42;;;;;;;6.82;4.32;;;24.50;41.20;;;;;;8322776;28;20033;-40
2022/06/04 14:15:12;;;;;;;5.20;4.30;;;24.50;41.20;;;;;;8312014;28;20038;-41
2022/06/04 14:19:21;;;;;;;5.80;4.13;;;24.50;41.20;;;;;;8324743;28;20472;-41
2022/06/04 14:23:49;;;;;;;6.28;4.65;;;24.50;41.20;;;;;;8327974;28;20045;-41
2022/06/04 14:28:05;;;;;;;6.70;4.72;;;24.50;41.20;;;;;;8308164;28;20154;-39
2022/06/04 14:32:40;;;;;;;7.40;4.90;;;24.50;41.20;;;;;;8301241;28;20057;-41
2022/06/04 14:36:53;;;;;;;6.07;5.05;;;24.60;41.20;;;;;;8321684;28;20038;-41
2022/06/04 14:41:26;;;;;;;6.88;4.95;;;24.60;41.20;;;;;;8320660;28;20104;-41
2022/06/04 14:45:55;;;;;;;6.05;4.68;;;24.60;41.20;;;;;;8343568;28;20065;-41
2022/06/04 14:50:07;;;;;;;6.40;4.78;;;24.60;41.10;;;;;;8326384;28;20054;-41
2022/06/04 14:54:10;;;;;;;6.82;5.50;;;24.60;41.10;;;;;;8301165;28;20033;-41
2022/06/04 14:58:34;;;;;;;7.20;5.05;;;24.60;41.10;;;;;;8295210;28;20430;-41
2022/06/04 15:03:06;;;;;;;6.15;4.90;;;24.60;41.20;;;;;;8302636;28;20042;-41
2022/06/04 15:07:22;;;;;;;6.10;4.95;;;24.70;41.10;;;;;;8308376;28;20045;-40
2022/06/04 15:11:54;;;;;;;7.00;5.15;;;24.70;41.10;;;;;;8310945;28;20395;-40
2022/06/04 15:16:51;;;;;;;6.30;5.30;;;24.70;41.10;;;;;;8318027;28;20128;-41
2022/06/04 15:21:26;;;;;;;7.55;5.75;;;24.70;41.10;;;;;;8275314;28;20044;-40
2022/06/04 15:26:00;;;;;;;7.30;5.28;;;24.70;41.10;;;;;;8301963;28;20038;-40
2022/06/04 15:34:47;;;;;;;6.45;5.18;;;24.70;41.00;;;;;;8304820;28;20100;-40
2022/06/04 15:39:06;;;;;;;7.68;5.30;;;24.70;41.10;;;;;;8312030;28;20073;-40
2022/06/04 15:43:20;;;;;;;7.82;5.97;;;24.70;41.10;;;;;;8332078;28;20033;-40
2022/06/04 15:47:29;;;;;;;7.80;5.65;;;24.80;41.10;;;;;;8332853;28;20041;-40
2022/06/04 15:56:23;;;;;;;8.20;6.15;;;24.80;41.20;;;;;;8332549;28;20072;-40
2022/06/04 16:00:27;;;;;;;8.10;6.00;;;24.80;41.10;;;;;;8331925;28;20064;-40
2022/06/04 16:04:55;;;;;;;8.45;6.63;;;24.80;41.00;;;;;;8332378;28;20491;-40
2022/06/04 16:09:02;;;;;;;7.90;6.00;;;24.80;41.20;;;;;;8315699;28;20077;-40
2022/06/04 16:13:35;;;;;;;7.13;5.78;;;24.80;41.10;;;;;;8298452;28;20038;-40
2022/06/04 16:17:52;;;;;;;8.13;6.20;;;24.80;41.20;;;;;;8299275;28;20033;-40
2022/06/04 16:22:12;;;;;;;7.57;5.75;;;24.80;41.20;;;;;;8328984;28;20045;-40
2022/06/04 16:26:27;;;;;;;8.05;6.55;;;24.80;41.20;;;;;;8331222;28;20048;-40
2022/06/04 16:30:28;;;;;;;8.93;6.35;;;24.70;41.20;;;;;;8331041;28;20108;-40
2022/06/04 16:34:47;;;;;;;7.65;6.03;;;24.70;41.20;;;;;;8331236;28;20041;-40
2022/06/04 16:38:49;;;;;;;9.02;6.35;;;24.70;41.20;;;;;;8331185;28;20038;-40
2022/06/04 16:42:55;;;;;;;9.13;6.07;;;24.70;41.20;;;;;;8330507;28;20057;-40
2022/06/04 16:47:03;;;;;;;7.82;5.95;;;24.70;41.30;;;;;;8330977;28;20045;-40
2022/06/04 16:51:08;;;;;;;8.98;6.15;;;24.80;41.20;;;;;;8330817;28;20037;-40
2022/06/04 16:55:14;;;;;;;7.43;5.80;;;24.70;41.10;;;;;;8330211;28;20045;-39
2022/06/04 16:59:16;;;;;;;8.88;6.50;;;24.80;41.30;;;;;;8330444;28;20044;-40
2022/06/04 17:03:42;;;;;;;9.20;6.15;;;24.80;41.20;;;;;;8329863;28;20041;-40
2022/06/04 17:08:13;;;;;;;9.07;6.70;;;24.80;41.20;;;;;;8330717;28;20053;-40
2022/06/04 17:12:13;;;;;;;9.65;6.20;;;24.80;41.20;;;;;;8329997;28;20045;-40
2022/06/04 17:16:20;;;;;;;8.23;6.40;;;24.80;41.20;;;;;;8330031;28;20026;-40
2022/06/04 17:20:23;;;;;;;8.70;6.50;;;24.80;41.20;;;;;;8329984;28;20284;-40
2022/06/04 17:24:30;;;;;;;8.73;6.57;;;24.80;41.20;;;;;;8329379;28;20390;-40
2022/06/04 17:29:00;;;;;;;8.32;6.15;;;24.80;41.30;;;;;;8329348;28;20038;-40
2022/06/04 17:33:31;;;;;;;8.45;6.13;;;24.80;41.30;;;;;;8330020;28;20041;-40
2022/06/04 17:37:49;;;;;;;9.48;6.70;;;24.80;41.30;;;;;;8329745;28;20049;-40
2022/06/04 17:41:52;;;;;;;9.05;6.88;;;24.80;41.20;;;;;;8329500;28;20112;-40
2022/06/04 17:45:52;;;;;;;10.07;7.22;;;24.80;41.20;;;;;;8329079;28;20037;-40
2022/06/04 17:49:53;;;;;;;9.80;6.75;;;24.80;41.30;;;;;;8329505;28;20096;-40
2022/06/04 17:53:54;;;;;;;9.23;6.82;;;24.80;41.30;;;;;;8329621;28;20033;-41
2022/06/04 17:57:54;;;;;;;8.23;6.95;;;24.80;41.40;;;;;;8329308;28;20106;-40
2022/06/04 18:01:56;;;;;;;9.15;6.55;;;24.80;41.30;;;;;;8329707;28;20041;-41
2022/06/04 18:05:56;;;;;;;8.15;6.50;;;24.80;41.30;;;;;;8329709;28;20041;-40
2022/06/04 18:09:57;;;;;;;9.57;6.32;;;24.80;41.30;;;;;;8328827;28;20132;-41
2022/06/04 18:13:58;;;;;;;9.10;6.75;;;24.80;41.40;;;;;;8329107;28;20494;-40
2022/06/04 18:17:59;;;;;;;10.57;7.10;;;24.80;41.30;;;;;;8329406;28;20030;-41
2022/06/04 18:21:59;;;;;;;;;;;24.80;41.30;;;;;;8328986;28;20037;-41
2022/06/04 18:26:05;;;;;;;10.03;6.83;;;24.80;41.30;;;;;;8328771;28;19982;-40
2022/06/04 18:30:06;;;;;;;8.80;6.57;;;24.80;41.40;;;;;;8328877;28;20045;-40
2022/06/04 18:34:07;;;;;;;11.13;6.47;;;24.80;41.50;;;;;;8328204;28;20033;-40
2022/06/04 18:38:08;;;;;;;9.75;6.97;;;24.70;41.50;;;;;;8332101;28;20037;-41
2022/06/04 18:55:10;;;;;;;9.30;6.47;;;24.70;41.80;;;;;;8334183;28;20445;-40
2022/06/04 18:59:12;;;;;;;9.18;6.63;;;24.70;42.00;;;;;;8334330;28;20034;-41
2022/06/04 19:03:13;;;;;;;7.80;5.63;;;24.80;42.20;;;;;;8334099;28;20113;-41
2022/06/04 19:15:52;;;;;;;8.90;6.43;;;24.80;42.10;;;;;;8333309;28;20560;-41
2022/06/04 19:28:33;;;;;;;8.38;6.20;;;24.70;42.10;;;;;;8333943;28;20055;-41
2022/06/04 19:32:34;;;;;;;8.05;6.00;;;24.80;42.00;;;;;;8333305;28;20398;-40
2022/06/04 19:36:35;;;;;;;8.18;6.05;;;24.70;41.90;;;;;;8332922;28;20049;-40
2022/06/04 19:40:35;;;;;;;8.65;5.88;;;24.70;41.90;;;;;;8333219;28;20041;-40
2022/06/04 19:44:36;;;;;;;8.55;5.28;;;24.70;41.90;;;;;;8332981;28;20040;-40
2022/06/04 19:48:38;;;;;;;9.75;6.30;;;24.70;41.80;;;;;;8331719;28;20065;-40
2022/06/04 19:56:58;;;;;;;7.20;5.28;;;24.70;41.70;;;;;;8332521;28;20570;-41
2022/06/04 20:00:59;;;;;;;7.10;5.50;;;24.70;41.70;;;;;;8331797;28;20030;-40
2022/06/04 20:04:59;;;;;;;8.07;5.40;;;24.70;41.70;;;;;;8332490;28;20092;-40
2022/06/04 20:09:00;;;;;;;7.18;5.55;;;24.70;42.00;;;;;;8332239;28;20491;-41
2022/06/04 20:13:00;;;;;;;7.28;5.43;;;24.70;41.70;;;;;;8331384;28;20040;-40
2022/06/04 20:17:01;;;;;;;8.15;5.65;;;24.70;41.70;;;;;;8331791;28;20402;-40
2022/06/04 20:21:02;;;;;;;7.63;5.72;;;24.60;41.60;;;;;;8331566;28;20037;-41
2022/06/04 20:25:03;;;;;;;7.18;5.43;;;24.70;41.70;;;;;;8331085;28;20045;-41
2022/06/04 20:29:04;;;;;;;7.55;5.55;;;24.70;41.60;;;;;;8331425;28;20053;-40
2022/06/04 20:33:05;;;;;;;7.43;5.50;;;24.70;41.60;;;;;;8331187;28;20030;-41
2022/06/04 20:37:06;;;;;;;7.57;5.55;;;24.70;41.60;;;;;;8330665;28;20116;-41
2022/06/04 20:41:26;;;;;;;7.60;5.28;;;24.70;41.60;;;;;;8330942;28;20128;-41
2022/06/04 20:45:27;;;;;;;7.63;5.70;;;24.70;41.60;;;;;;8330260;28;20565;-40
2022/06/04 20:49:28;;;;;;;8.45;5.90;;;24.70;41.60;;;;;;8331197;28;20042;-41
2022/06/04 20:53:28;;;;;;;;;;;24.70;41.60;;;;;;8331467;28;20049;-41
2022/06/04 20:57:29;;;;;;;7.33;5.70;;;24.70;41.60;;;;;;8330141;28;19913;-41
2022/06/04 21:01:30;;;;;;;7.00;5.85;;;24.60;41.60;;;;;;8329447;28;20041;-41
2022/06/04 21:05:31;;;;;;;;;;;24.70;41.60;;;;;;8331246;28;20094;-40
2022/06/04 21:09:31;;;;;;;6.90;5.07;;;24.60;41.60;;;;;;8330074;28;20255;-41
2022/06/04 21:13:32;;;;;;;7.13;5.60;;;24.60;41.60;;;;;;8330074;28;20059;-41
2022/06/04 21:17:33;;;;;;;;;;;24.60;41.60;;;;;;8330624;28;20113;-41
2022/06/04 21:21:34;;;;;;;8.60;5.73;;;24.60;41.60;;;;;;8330040;28;19913;-41
2022/06/04 21:25:39;;;;;;;8.68;6.07;;;24.70;41.70;;;;;;8329844;28;20021;-41
2022/06/04 21:29:40;;;;;;;5.90;4.70;;;24.60;41.70;;;;;;8329897;28;20494;-41
2022/06/04 21:33:40;;;;;;;6.30;5.38;;;24.60;41.60;;;;;;8329345;28;20038;-41
2022/06/04 21:37:41;;;;;;;7.05;5.60;;;24.60;41.70;;;;;;8329648;28;20079;-40
2022/06/04 21:41:42;;;;;;;6.63;4.75;;;24.60;41.60;;;;;;8329723;28;20481;-40
2022/06/04 21:45:43;;;;;;;;;;;24.60;41.60;;;;;;8329789;28;20087;-40
2022/06/04 21:49:43;;;;;;;7.03;5.27;;;24.60;41.70;;;;;;8329860;28;20439;-40
2022/06/04 21:53:44;;;;;;;6.70;5.25;;;24.60;41.70;;;;;;8329692;28;20394;-41
2022/06/04 21:57:45;;;;;;;7.47;5.30;;;24.60;41.70;;;;;;8329033;28;20038;-41
2022/06/04 22:01:47;;;;;;;7.88;5.22;;;24.60;41.70;;;;;;8328363;28;20049;-41
2022/06/04 22:05:47;;;;;;;6.50;5.03;;;24.60;41.70;;;;;;8328413;28;20041;-40
2022/06/04 22:09:48;;;;;;;7.20;5.30;;;24.60;41.70;;;;;;8329139;28;20072;-41
2022/06/04 22:13:55;;;;;;;7.28;5.55;;;24.60;41.70;;;;;;8333665;28;20265;-41
2022/06/04 22:17:56;;;;;;;6.95;5.20;;;24.60;41.60;;;;;;8335590;28;20123;-40
2022/06/04 22:21:57;;;;;;;7.05;5.18;;;24.60;41.70;;;;;;8335099;28;20034;-41
2022/06/04 22:25:59;;;;;;;6.75;5.00;;;24.60;41.60;;;;;;8335399;28;20128;-41
2022/06/04 22:30:00;;;;;;;6.43;4.90;;;24.60;41.60;;;;;;8335493;28;20128;-41
2022/06/04 22:34:02;;;;;;;8.68;5.22;;;24.60;41.60;;;;;;8335050;28;20080;-41